sensor_id;sensor_type;location;lat;lon;timestamp;P1;durP1;ratioP1;P2;durP2;ratioP2
42066;SDS011;27734;47.028;28.820;2022-10-26T00:00:16;25.30;;;13.73;;
42066;SDS011;27734;47.028;28.820;2022-10-26T00:03:09;21.53;;;12.00;;
42066;SDS011;27734;47.028;28.820;2022-10-26T00:05:40;23.20;;;13.73;;
42066;SDS011;27734;47.028;28.820;2022-10-26T00:08:12;24.60;;;12.97;;
42066;SDS011;27734;47.028;28.820;2022-10-26T00:10:43;21.33;;;12.30;;
42066;SDS011;27734;47.028;28.820;2022-10-26T00:13:14;22.57;;;12.33;;
42066;SDS011;27734;47.028;28.820;2022-10-26T00:15:45;22.87;;;12.43;;
42066;SDS011;27734;47.028;28.820;2022-10-26T00:18:16;21.07;;;12.53;;
42066;SDS011;27734;47.028;28.820;2022-10-26T00:20:47;21.57;;;12.23;;
42066;SDS011;27734;47.028;28.820;2022-10-26T00:23:18;21.37;;;11.37;;
42066;SDS011;27734;47.028;28.820;2022-10-26T00:25:56;21.63;;;11.30;;
42066;SDS011;27734;47.028;28.820;2022-10-26T00:28:27;19.90;;;10.27;;
42066;SDS011;27734;47.028;28.820;2022-10-26T00:31:00;20.93;;;10.50;;
42066;SDS011;27734;47.028;28.820;2022-10-26T00:33:33;17.83;;;10.47;;
42066;SDS011;27734;47.028;28.820;2022-10-26T00:36:04;21.10;;;10.60;;
42066;SDS011;27734;47.028;28.820;2022-10-26T00:38:37;18.00;;;9.40;;
42066;SDS011;27734;47.028;28.820;2022-10-26T00:41:14;16.60;;;8.43;;
42066;SDS011;27734;47.028;28.820;2022-10-26T00:46:17;17.63;;;9.90;;
42066;SDS011;27734;47.028;28.820;2022-10-26T00:48:52;19.77;;;9.93;;
42066;SDS011;27734;47.028;28.820;2022-10-26T00:51:28;17.73;;;9.80;;
42066;SDS011;27734;47.028;28.820;2022-10-26T00:54:05;16.60;;;9.47;;
42066;SDS011;27734;47.028;28.820;2022-10-26T00:56:39;19.13;;;9.80;;
42066;SDS011;27734;47.028;28.820;2022-10-26T00:59:11;17.57;;;9.23;;
42066;SDS011;27734;47.028;28.820;2022-10-26T01:01:44;17.67;;;10.08;;
42066;SDS011;27734;47.028;28.820;2022-10-26T01:04:17;18.15;;;9.60;;
42066;SDS011;27734;47.028;28.820;2022-10-26T01:06:48;19.17;;;9.40;;
42066;SDS011;27734;47.028;28.820;2022-10-26T01:09:20;18.07;;;9.57;;
42066;SDS011;27734;47.028;28.820;2022-10-26T01:11:51;19.40;;;9.77;;
42066;SDS011;27734;47.028;28.820;2022-10-26T01:14:23;18.75;;;10.10;;
42066;SDS011;27734;47.028;28.820;2022-10-26T01:16:58;18.83;;;9.67;;
42066;SDS011;27734;47.028;28.820;2022-10-26T01:22:38;17.05;;;9.60;;
42066;SDS011;27734;47.028;28.820;2022-10-26T01:25:18;17.87;;;9.70;;
42066;SDS011;27734;47.028;28.820;2022-10-26T01:28:01;17.70;;;9.10;;
42066;SDS011;27734;47.028;28.820;2022-10-26T01:30:44;18.07;;;9.10;;
42066;SDS011;27734;47.028;28.820;2022-10-26T01:33:18;21.63;;;9.77;;
42066;SDS011;27734;47.028;28.820;2022-10-26T01:36:08;18.37;;;9.70;;
42066;SDS011;27734;47.028;28.820;2022-10-26T01:38:46;19.30;;;10.00;;
42066;SDS011;27734;47.028;28.820;2022-10-26T01:41:25;17.93;;;10.23;;
42066;SDS011;27734;47.028;28.820;2022-10-26T01:44:01;19.30;;;10.30;;
42066;SDS011;27734;47.028;28.820;2022-10-26T01:46:35;19.13;;;9.83;;
42066;SDS011;27734;47.028;28.820;2022-10-26T01:49:09;18.17;;;9.40;;
42066;SDS011;27734;47.028;28.820;2022-10-26T01:51:43;20.13;;;10.30;;
42066;SDS011;27734;47.028;28.820;2022-10-26T01:54:16;19.00;;;10.05;;
42066;SDS011;27734;47.028;28.820;2022-10-26T01:56:48;18.20;;;9.77;;
42066;SDS011;27734;47.028;28.820;2022-10-26T01:59:28;18.97;;;10.03;;
42066;SDS011;27734;47.028;28.820;2022-10-26T02:02:33;22.00;;;10.77;;
42066;SDS011;27734;47.028;28.820;2022-10-26T02:05:22;20.50;;;11.30;;
42066;SDS011;27734;47.028;28.820;2022-10-26T02:08:02;18.15;;;10.35;;
42066;SDS011;27734;47.028;28.820;2022-10-26T02:10:51;18.10;;;10.23;;
42066;SDS011;27734;47.028;28.820;2022-10-26T02:13:31;17.43;;;9.83;;
42066;SDS011;27734;47.028;28.820;2022-10-26T02:16:12;20.03;;;10.33;;
42066;SDS011;27734;47.028;28.820;2022-10-26T02:18:51;17.73;;;10.13;;
42066;SDS011;27734;47.028;28.820;2022-10-26T02:21:30;19.07;;;10.43;;
42066;SDS011;27734;47.028;28.820;2022-10-26T02:24:06;19.97;;;11.13;;
42066;SDS011;27734;47.028;28.820;2022-10-26T02:26:42;19.03;;;9.93;;
42066;SDS011;27734;47.028;28.820;2022-10-26T02:29:17;19.47;;;9.83;;
42066;SDS011;27734;47.028;28.820;2022-10-26T02:31:51;23.33;;;10.60;;
42066;SDS011;27734;47.028;28.820;2022-10-26T02:34:23;19.10;;;10.00;;
42066;SDS011;27734;47.028;28.820;2022-10-26T02:36:56;17.40;;;9.90;;
42066;SDS011;27734;47.028;28.820;2022-10-26T02:39:31;17.57;;;9.73;;
42066;SDS011;27734;47.028;28.820;2022-10-26T02:42:04;18.82;;;9.90;;
42066;SDS011;27734;47.028;28.820;2022-10-26T02:44:39;16.60;;;9.10;;
42066;SDS011;27734;47.028;28.820;2022-10-26T02:47:14;18.93;;;9.73;;
42066;SDS011;27734;47.028;28.820;2022-10-26T02:49:46;21.07;;;10.67;;
42066;SDS011;27734;47.028;28.820;2022-10-26T02:52:19;20.00;;;11.20;;
42066;SDS011;27734;47.028;28.820;2022-10-26T02:54:58;19.10;;;10.03;;
42066;SDS011;27734;47.028;28.820;2022-10-26T02:57:33;19.47;;;9.97;;
42066;SDS011;27734;47.028;28.820;2022-10-26T03:00:09;19.43;;;10.30;;
42066;SDS011;27734;47.028;28.820;2022-10-26T03:02:43;19.10;;;10.27;;
42066;SDS011;27734;47.028;28.820;2022-10-26T03:05:20;18.27;;;9.37;;
42066;SDS011;27734;47.028;28.820;2022-10-26T03:10:24;18.93;;;10.00;;
42066;SDS011;27734;47.028;28.820;2022-10-26T03:12:55;17.67;;;9.97;;
42066;SDS011;27734;47.028;28.820;2022-10-26T03:15:26;20.30;;;11.00;;
42066;SDS011;27734;47.028;28.820;2022-10-26T03:17:57;22.80;;;11.03;;
42066;SDS011;27734;47.028;28.820;2022-10-26T03:20:28;21.77;;;10.83;;
42066;SDS011;27734;47.028;28.820;2022-10-26T03:22:59;20.03;;;11.03;;
42066;SDS011;27734;47.028;28.820;2022-10-26T03:25:30;19.13;;;10.63;;
42066;SDS011;27734;47.028;28.820;2022-10-26T03:28:01;20.47;;;11.50;;
42066;SDS011;27734;47.028;28.820;2022-10-26T03:30:34;20.10;;;10.90;;
42066;SDS011;27734;47.028;28.820;2022-10-26T03:33:05;20.00;;;11.50;;
42066;SDS011;27734;47.028;28.820;2022-10-26T03:35:36;20.93;;;11.27;;
42066;SDS011;27734;47.028;28.820;2022-10-26T03:38:07;20.10;;;11.27;;
42066;SDS011;27734;47.028;28.820;2022-10-26T03:40:38;21.27;;;11.60;;
42066;SDS011;27734;47.028;28.820;2022-10-26T03:43:10;22.30;;;11.90;;
42066;SDS011;27734;47.028;28.820;2022-10-26T03:45:41;22.57;;;12.60;;
42066;SDS011;27734;47.028;28.820;2022-10-26T03:48:12;20.97;;;11.17;;
42066;SDS011;27734;47.028;28.820;2022-10-26T03:50:43;23.43;;;12.63;;
42066;SDS011;27734;47.028;28.820;2022-10-26T03:53:15;21.13;;;12.20;;
42066;SDS011;27734;47.028;28.820;2022-10-26T03:55:46;21.43;;;11.47;;
42066;SDS011;27734;47.028;28.820;2022-10-26T03:58:17;22.80;;;12.03;;
42066;SDS011;27734;47.028;28.820;2022-10-26T04:00:48;21.93;;;12.33;;
42066;SDS011;27734;47.028;28.820;2022-10-26T04:03:19;23.43;;;13.30;;
42066;SDS011;27734;47.028;28.820;2022-10-26T04:05:50;24.77;;;14.90;;
42066;SDS011;27734;47.028;28.820;2022-10-26T04:08:21;27.20;;;15.33;;
42066;SDS011;27734;47.028;28.820;2022-10-26T04:10:52;26.00;;;15.27;;
42066;SDS011;27734;47.028;28.820;2022-10-26T04:13:23;29.67;;;17.60;;
42066;SDS011;27734;47.028;28.820;2022-10-26T04:15:54;29.33;;;17.43;;
42066;SDS011;27734;47.028;28.820;2022-10-26T04:18:25;32.40;;;18.03;;
42066;SDS011;27734;47.028;28.820;2022-10-26T04:20:56;29.20;;;18.37;;
42066;SDS011;27734;47.028;28.820;2022-10-26T04:23:30;30.15;;;18.67;;
42066;SDS011;27734;47.028;28.820;2022-10-26T04:26:01;29.90;;;18.77;;
42066;SDS011;27734;47.028;28.820;2022-10-26T04:28:34;36.57;;;20.63;;
42066;SDS011;27734;47.028;28.820;2022-10-26T04:31:05;32.67;;;20.03;;
42066;SDS011;27734;47.028;28.820;2022-10-26T04:33:36;35.77;;;21.50;;
42066;SDS011;27734;47.028;28.820;2022-10-26T04:36:08;33.60;;;20.33;;
42066;SDS011;27734;47.028;28.820;2022-10-26T04:38:39;35.40;;;21.23;;
42066;SDS011;27734;47.028;28.820;2022-10-26T04:41:10;36.83;;;21.03;;
42066;SDS011;27734;47.028;28.820;2022-10-26T04:43:41;33.10;;;21.60;;
42066;SDS011;27734;47.028;28.820;2022-10-26T04:46:12;35.97;;;20.63;;
42066;SDS011;27734;47.028;28.820;2022-10-26T04:48:43;33.87;;;20.60;;
42066;SDS011;27734;47.028;28.820;2022-10-26T04:51:15;35.10;;;21.10;;
42066;SDS011;27734;47.028;28.820;2022-10-26T04:53:47;33.57;;;20.17;;
42066;SDS011;27734;47.028;28.820;2022-10-26T04:56:18;33.90;;;21.70;;
42066;SDS011;27734;47.028;28.820;2022-10-26T04:58:51;35.10;;;21.47;;
42066;SDS011;27734;47.028;28.820;2022-10-26T05:01:23;35.73;;;21.50;;
42066;SDS011;27734;47.028;28.820;2022-10-26T05:03:54;34.43;;;21.40;;
42066;SDS011;27734;47.028;28.820;2022-10-26T05:06:26;36.50;;;22.90;;
42066;SDS011;27734;47.028;28.820;2022-10-26T05:08:57;37.97;;;22.30;;
42066;SDS011;27734;47.028;28.820;2022-10-26T05:11:28;35.90;;;21.00;;
42066;SDS011;27734;47.028;28.820;2022-10-26T05:13:59;34.93;;;21.30;;
42066;SDS011;27734;47.028;28.820;2022-10-26T05:16:30;36.50;;;21.27;;
42066;SDS011;27734;47.028;28.820;2022-10-26T05:19:01;34.73;;;21.63;;
42066;SDS011;27734;47.028;28.820;2022-10-26T05:21:32;33.73;;;20.60;;
42066;SDS011;27734;47.028;28.820;2022-10-26T05:24:04;33.00;;;20.73;;
42066;SDS011;27734;47.028;28.820;2022-10-26T05:26:36;33.90;;;19.37;;
42066;SDS011;27734;47.028;28.820;2022-10-26T05:29:07;32.83;;;19.57;;
42066;SDS011;27734;47.028;28.820;2022-10-26T05:31:38;34.90;;;20.17;;
42066;SDS011;27734;47.028;28.820;2022-10-26T05:34:11;31.87;;;19.23;;
42066;SDS011;27734;47.028;28.820;2022-10-26T05:36:42;31.70;;;19.17;;
42066;SDS011;27734;47.028;28.820;2022-10-26T05:39:13;29.67;;;17.67;;
42066;SDS011;27734;47.028;28.820;2022-10-26T05:41:44;32.63;;;19.47;;
42066;SDS011;27734;47.028;28.820;2022-10-26T05:44:15;30.47;;;17.83;;
42066;SDS011;27734;47.028;28.820;2022-10-26T05:46:46;29.77;;;17.87;;
42066;SDS011;27734;47.028;28.820;2022-10-26T05:49:17;29.73;;;18.10;;
42066;SDS011;27734;47.028;28.820;2022-10-26T05:51:49;31.30;;;18.00;;
42066;SDS011;27734;47.028;28.820;2022-10-26T05:54:20;30.75;;;17.75;;
42066;SDS011;27734;47.028;28.820;2022-10-26T05:56:55;29.90;;;18.37;;
42066;SDS011;27734;47.028;28.820;2022-10-26T05:59:34;29.47;;;18.17;;
42066;SDS011;27734;47.028;28.820;2022-10-26T06:02:11;30.07;;;17.47;;
42066;SDS011;27734;47.028;28.820;2022-10-26T06:04:53;31.60;;;19.30;;
42066;SDS011;27734;47.028;28.820;2022-10-26T06:07:32;33.13;;;20.27;;
42066;SDS011;27734;47.028;28.820;2022-10-26T06:10:05;32.75;;;19.60;;
42066;SDS011;27734;47.028;28.820;2022-10-26T06:12:39;31.40;;;19.50;;
42066;SDS011;27734;47.028;28.820;2022-10-26T06:15:15;35.50;;;20.90;;
42066;SDS011;27734;47.028;28.820;2022-10-26T06:17:52;34.33;;;19.73;;
42066;SDS011;27734;47.028;28.820;2022-10-26T06:20:38;29.70;;;18.60;;
42066;SDS011;27734;47.028;28.820;2022-10-26T06:23:35;33.37;;;17.53;;
42066;SDS011;27734;47.028;28.820;2022-10-26T06:26:16;31.00;;;18.97;;
42066;SDS011;27734;47.028;28.820;2022-10-26T06:29:00;31.13;;;17.23;;
42066;SDS011;27734;47.028;28.820;2022-10-26T06:31:40;31.33;;;18.17;;
42066;SDS011;27734;47.028;28.820;2022-10-26T06:34:13;33.73;;;20.23;;
42066;SDS011;27734;47.028;28.820;2022-10-26T06:36:51;28.87;;;18.67;;
42066;SDS011;27734;47.028;28.820;2022-10-26T06:39:23;31.20;;;18.73;;
42066;SDS011;27734;47.028;28.820;2022-10-26T06:41:58;32.57;;;18.47;;
42066;SDS011;27734;47.028;28.820;2022-10-26T06:44:31;33.83;;;20.03;;
42066;SDS011;27734;47.028;28.820;2022-10-26T06:47:04;34.63;;;19.27;;
42066;SDS011;27734;47.028;28.820;2022-10-26T06:49:45;35.17;;;20.67;;
42066;SDS011;27734;47.028;28.820;2022-10-26T06:52:28;32.10;;;19.10;;
42066;SDS011;27734;47.028;28.820;2022-10-26T06:55:06;32.70;;;19.50;;
42066;SDS011;27734;47.028;28.820;2022-10-26T06:57:43;31.90;;;19.90;;
42066;SDS011;27734;47.028;28.820;2022-10-26T07:00:16;30.13;;;17.67;;
42066;SDS011;27734;47.028;28.820;2022-10-26T08:01:36;42.33;;;21.80;;
42066;SDS011;27734;47.028;28.820;2022-10-26T08:04:09;45.13;;;21.40;;
42066;SDS011;27734;47.028;28.820;2022-10-26T08:06:46;40.83;;;20.47;;
42066;SDS011;27734;47.028;28.820;2022-10-26T08:09:17;33.53;;;18.47;;
42066;SDS011;27734;47.028;28.820;2022-10-26T08:11:50;36.57;;;19.90;;
42066;SDS011;27734;47.028;28.820;2022-10-26T08:14:21;31.97;;;17.43;;
42066;SDS011;27734;47.028;28.820;2022-10-26T08:16:53;31.63;;;16.60;;
42066;SDS011;27734;47.028;28.820;2022-10-26T08:19:24;34.15;;;17.35;;
42066;SDS011;27734;47.028;28.820;2022-10-26T08:21:55;28.77;;;15.53;;
42066;SDS011;27734;47.028;28.820;2022-10-26T08:24:27;31.20;;;14.80;;
42066;SDS011;27734;47.028;28.820;2022-10-26T08:26:59;29.60;;;14.77;;
42066;SDS011;27734;47.028;28.820;2022-10-26T08:29:31;24.93;;;14.20;;
42066;SDS011;27734;47.028;28.820;2022-10-26T08:32:02;24.40;;;13.70;;
42066;SDS011;27734;47.028;28.820;2022-10-26T08:34:34;23.17;;;13.00;;
42066;SDS011;27734;47.028;28.820;2022-10-26T08:37:06;24.30;;;12.93;;
42066;SDS011;27734;47.028;28.820;2022-10-26T08:39:40;26.10;;;13.30;;
42066;SDS011;27734;47.028;28.820;2022-10-26T08:42:13;23.15;;;11.90;;
42066;SDS011;27734;47.028;28.820;2022-10-26T08:44:50;22.30;;;11.40;;
42066;SDS011;27734;47.028;28.820;2022-10-26T08:47:29;22.57;;;11.33;;
42066;SDS011;27734;47.028;28.820;2022-10-26T08:50:05;24.80;;;12.30;;
42066;SDS011;27734;47.028;28.820;2022-10-26T08:52:45;18.07;;;9.80;;
42066;SDS011;27734;47.028;28.820;2022-10-26T08:55:22;19.77;;;9.43;;
42066;SDS011;27734;47.028;28.820;2022-10-26T08:57:57;17.07;;;9.57;;
42066;SDS011;27734;47.028;28.820;2022-10-26T09:00:35;18.47;;;9.03;;
42066;SDS011;27734;47.028;28.820;2022-10-26T09:03:12;17.75;;;9.10;;
42066;SDS011;27734;47.028;28.820;2022-10-26T09:05:48;21.13;;;9.27;;
42066;SDS011;27734;47.028;28.820;2022-10-26T09:11:10;17.20;;;9.53;;
42066;SDS011;27734;47.028;28.820;2022-10-26T09:13:50;17.97;;;8.70;;
42066;SDS011;27734;47.028;28.820;2022-10-26T09:16:35;17.23;;;8.63;;
42066;SDS011;27734;47.028;28.820;2022-10-26T09:19:22;16.77;;;7.83;;
42066;SDS011;27734;47.028;28.820;2022-10-26T09:22:08;13.77;;;7.13;;
42066;SDS011;27734;47.028;28.820;2022-10-26T09:24:47;14.00;;;7.43;;
42066;SDS011;27734;47.028;28.820;2022-10-26T09:27:23;16.53;;;8.00;;
42066;SDS011;27734;47.028;28.820;2022-10-26T09:29:56;14.70;;;7.87;;
42066;SDS011;27734;47.028;28.820;2022-10-26T09:32:35;16.10;;;8.23;;
42066;SDS011;27734;47.028;28.820;2022-10-26T09:35:13;15.75;;;7.90;;
42066;SDS011;27734;47.028;28.820;2022-10-26T09:37:51;11.90;;;6.90;;
42066;SDS011;27734;47.028;28.820;2022-10-26T09:40:28;14.03;;;7.83;;
42066;SDS011;27734;47.028;28.820;2022-10-26T09:43:05;14.83;;;7.83;;
42066;SDS011;27734;47.028;28.820;2022-10-26T09:45:43;17.33;;;7.50;;
42066;SDS011;27734;47.028;28.820;2022-10-26T09:48:20;14.03;;;6.87;;
42066;SDS011;27734;47.028;28.820;2022-10-26T09:50:56;13.60;;;7.27;;
42066;SDS011;27734;47.028;28.820;2022-10-26T09:53:28;11.90;;;7.27;;
42066;SDS011;27734;47.028;28.820;2022-10-26T09:56:04;18.03;;;7.40;;
42066;SDS011;27734;47.028;28.820;2022-10-26T09:58:39;14.27;;;6.93;;
42066;SDS011;27734;47.028;28.820;2022-10-26T10:01:22;12.63;;;6.50;;
42066;SDS011;27734;47.028;28.820;2022-10-26T10:04:09;11.50;;;6.27;;
42066;SDS011;27734;47.028;28.820;2022-10-26T10:06:48;13.30;;;5.83;;
42066;SDS011;27734;47.028;28.820;2022-10-26T10:09:21;12.07;;;6.10;;
42066;SDS011;27734;47.028;28.820;2022-10-26T10:11:54;11.07;;;5.50;;
42066;SDS011;27734;47.028;28.820;2022-10-26T10:14:29;10.40;;;5.10;;
42066;SDS011;27734;47.028;28.820;2022-10-26T10:17:02;12.03;;;5.70;;
42066;SDS011;27734;47.028;28.820;2022-10-26T10:19:37;11.70;;;5.10;;
42066;SDS011;27734;47.028;28.820;2022-10-26T10:22:11;9.43;;;5.00;;
42066;SDS011;27734;47.028;28.820;2022-10-26T10:24:53;11.77;;;5.40;;
42066;SDS011;27734;47.028;28.820;2022-10-26T10:27:26;12.40;;;6.17;;
42066;SDS011;27734;47.028;28.820;2022-10-26T10:30:20;11.37;;;5.47;;
42066;SDS011;27734;47.028;28.820;2022-10-26T10:33:06;10.60;;;6.20;;
42066;SDS011;27734;47.028;28.820;2022-10-26T10:35:46;10.43;;;5.70;;
42066;SDS011;27734;47.028;28.820;2022-10-26T10:38:20;11.83;;;6.00;;
42066;SDS011;27734;47.028;28.820;2022-10-26T10:40:52;10.27;;;5.80;;
42066;SDS011;27734;47.028;28.820;2022-10-26T10:43:27;16.00;;;6.00;;
42066;SDS011;27734;47.028;28.820;2022-10-26T10:45:59;13.33;;;6.20;;
42066;SDS011;27734;47.028;28.820;2022-10-26T10:48:37;13.77;;;6.17;;
42066;SDS011;27734;47.028;28.820;2022-10-26T10:51:20;12.87;;;6.20;;
42066;SDS011;27734;47.028;28.820;2022-10-26T10:56:28;11.73;;;5.87;;
42066;SDS011;27734;47.028;28.820;2022-10-26T10:59:18;12.37;;;6.20;;
42066;SDS011;27734;47.028;28.820;2022-10-26T11:02:20;9.53;;;5.83;;
42066;SDS011;27734;47.028;28.820;2022-10-26T11:05:09;14.17;;;6.83;;
42066;SDS011;27734;47.028;28.820;2022-10-26T11:08:02;12.88;;;6.47;;
42066;SDS011;27734;47.028;28.820;2022-10-26T11:10:43;13.30;;;6.53;;
42066;SDS011;27734;47.028;28.820;2022-10-26T11:13:23;11.60;;;6.70;;
42066;SDS011;27734;47.028;28.820;2022-10-26T11:16:00;11.80;;;6.23;;
42066;SDS011;27734;47.028;28.820;2022-10-26T11:18:39;12.30;;;6.50;;
42066;SDS011;27734;47.028;28.820;2022-10-26T11:21:24;15.97;;;7.00;;
42066;SDS011;27734;47.028;28.820;2022-10-26T11:24:09;15.15;;;7.28;;
42066;SDS011;27734;47.028;28.820;2022-10-26T11:27:02;13.53;;;6.40;;
42066;SDS011;27734;47.028;28.820;2022-10-26T11:29:46;10.48;;;6.20;;
42066;SDS011;27734;47.028;28.820;2022-10-26T11:32:45;14.13;;;6.60;;
42066;SDS011;27734;47.028;28.820;2022-10-26T11:35:26;12.67;;;6.70;;
42066;SDS011;27734;47.028;28.820;2022-10-26T11:38:25;12.87;;;6.67;;
42066;SDS011;27734;47.028;28.820;2022-10-26T11:41:17;11.70;;;6.53;;
42066;SDS011;27734;47.028;28.820;2022-10-26T11:44:12;16.03;;;7.37;;
42066;SDS011;27734;47.028;28.820;2022-10-26T11:46:57;18.80;;;7.50;;
42066;SDS011;27734;47.028;28.820;2022-10-26T11:49:45;14.87;;;6.93;;
42066;SDS011;27734;47.028;28.820;2022-10-26T11:52:21;15.30;;;6.60;;
42066;SDS011;27734;47.028;28.820;2022-10-26T11:58:28;16.87;;;6.80;;
42066;SDS011;27734;47.028;28.820;2022-10-26T12:01:11;13.10;;;6.50;;
42066;SDS011;27734;47.028;28.820;2022-10-26T12:03:59;13.70;;;6.83;;
42066;SDS011;27734;47.028;28.820;2022-10-26T12:06:39;17.27;;;6.80;;
42066;SDS011;27734;47.028;28.820;2022-10-26T12:09:14;18.67;;;6.60;;
42066;SDS011;27734;47.028;28.820;2022-10-26T12:11:50;15.37;;;6.53;;
42066;SDS011;27734;47.028;28.820;2022-10-26T12:14:29;16.23;;;6.80;;
42066;SDS011;27734;47.028;28.820;2022-10-26T12:17:10;17.57;;;7.10;;
42066;SDS011;27734;47.028;28.820;2022-10-26T12:19:50;16.83;;;7.27;;
42066;SDS011;27734;47.028;28.820;2022-10-26T12:22:30;16.03;;;6.30;;
42066;SDS011;27734;47.028;28.820;2022-10-26T12:25:06;15.63;;;6.30;;
42066;SDS011;27734;47.028;28.820;2022-10-26T12:27:55;17.45;;;6.00;;
42066;SDS011;27734;47.028;28.820;2022-10-26T12:30:28;14.33;;;6.23;;
42066;SDS011;27734;47.028;28.820;2022-10-26T12:35:36;15.90;;;5.43;;
42066;SDS011;27734;47.028;28.820;2022-10-26T12:41:21;10.57;;;5.30;;
42066;SDS011;27734;47.028;28.820;2022-10-26T12:43:57;11.47;;;5.47;;
42066;SDS011;27734;47.028;28.820;2022-10-26T13:08:01;14.10;;;6.00;;
42066;SDS011;27734;47.028;28.820;2022-10-26T13:10:39;15.93;;;5.77;;
42066;SDS011;27734;47.028;28.820;2022-10-26T13:13:29;13.03;;;6.17;;
42066;SDS011;27734;47.028;28.820;2022-10-26T13:16:02;14.60;;;6.30;;
42066;SDS011;27734;47.028;28.820;2022-10-26T13:18:41;12.63;;;6.20;;
42066;SDS011;27734;47.028;28.820;2022-10-26T13:21:17;13.90;;;5.80;;
42066;SDS011;27734;47.028;28.820;2022-10-26T13:23:56;15.60;;;6.40;;
42066;SDS011;27734;47.028;28.820;2022-10-26T13:26:51;14.55;;;6.33;;
42066;SDS011;27734;47.028;28.820;2022-10-26T13:32:46;16.17;;;6.20;;
42066;SDS011;27734;47.028;28.820;2022-10-26T13:35:23;13.80;;;5.75;;
42066;SDS011;27734;47.028;28.820;2022-10-26T13:37:56;15.00;;;6.37;;
42066;SDS011;27734;47.028;28.820;2022-10-26T13:40:35;14.87;;;6.60;;
42066;SDS011;27734;47.028;28.820;2022-10-26T13:43:10;14.93;;;6.27;;
42066;SDS011;27734;47.028;28.820;2022-10-26T13:45:52;14.37;;;6.57;;
42066;SDS011;27734;47.028;28.820;2022-10-26T13:48:30;18.20;;;6.60;;
42066;SDS011;27734;47.028;28.820;2022-10-26T13:51:13;14.30;;;6.43;;
42066;SDS011;27734;47.028;28.820;2022-10-26T13:53:50;9.43;;;5.67;;
42066;SDS011;27734;47.028;28.820;2022-10-26T13:56:29;13.27;;;6.90;;
42066;SDS011;27734;47.028;28.820;2022-10-26T13:59:09;10.87;;;6.20;;
42066;SDS011;27734;47.028;28.820;2022-10-26T14:01:41;14.35;;;6.20;;
42066;SDS011;27734;47.028;28.820;2022-10-26T14:04:16;15.07;;;6.33;;
42066;SDS011;27734;47.028;28.820;2022-10-26T14:06:54;12.17;;;6.23;;
42066;SDS011;27734;47.028;28.820;2022-10-26T14:09:27;11.50;;;6.10;;
42066;SDS011;27734;47.028;28.820;2022-10-26T14:12:01;13.80;;;6.30;;
42066;SDS011;27734;47.028;28.820;2022-10-26T14:14:33;12.70;;;6.03;;
42066;SDS011;27734;47.028;28.820;2022-10-26T14:17:16;13.17;;;6.37;;
42066;SDS011;27734;47.028;28.820;2022-10-26T14:19:50;13.00;;;6.50;;
42066;SDS011;27734;47.028;28.820;2022-10-26T14:22:24;11.73;;;5.80;;
42066;SDS011;27734;47.028;28.820;2022-10-26T14:24:58;12.50;;;6.13;;
42066;SDS011;27734;47.028;28.820;2022-10-26T14:27:32;15.70;;;6.50;;
42066;SDS011;27734;47.028;28.820;2022-10-26T14:30:20;14.60;;;6.80;;
42066;SDS011;27734;47.028;28.820;2022-10-26T14:32:56;13.37;;;6.70;;
42066;SDS011;27734;47.028;28.820;2022-10-26T14:35:31;13.53;;;6.77;;
42066;SDS011;27734;47.028;28.820;2022-10-26T14:38:04;13.50;;;6.83;;
42066;SDS011;27734;47.028;28.820;2022-10-26T14:40:45;13.07;;;6.70;;
42066;SDS011;27734;47.028;28.820;2022-10-26T14:45:50;17.87;;;6.90;;
42066;SDS011;27734;47.028;28.820;2022-10-26T14:48:26;14.67;;;7.00;;
42066;SDS011;27734;47.028;28.820;2022-10-26T14:51:04;12.67;;;6.53;;
42066;SDS011;27734;47.028;28.820;2022-10-26T14:53:39;12.55;;;6.75;;
42066;SDS011;27734;47.028;28.820;2022-10-26T14:56:21;13.93;;;6.87;;
42066;SDS011;27734;47.028;28.820;2022-10-26T14:58:57;12.23;;;6.77;;
42066;SDS011;27734;47.028;28.820;2022-10-26T15:01:47;13.47;;;6.57;;
42066;SDS011;27734;47.028;28.820;2022-10-26T15:04:27;13.47;;;6.73;;
42066;SDS011;27734;47.028;28.820;2022-10-26T15:07:13;15.93;;;6.67;;
42066;SDS011;27734;47.028;28.820;2022-10-26T15:09:47;17.20;;;7.60;;
42066;SDS011;27734;47.028;28.820;2022-10-26T15:12:29;17.10;;;7.43;;
42066;SDS011;27734;47.028;28.820;2022-10-26T15:15:13;13.48;;;7.22;;
42066;SDS011;27734;47.028;28.820;2022-10-26T15:17:50;16.17;;;7.43;;
42066;SDS011;27734;47.028;28.820;2022-10-26T15:20:25;16.40;;;7.22;;
42066;SDS011;27734;47.028;28.820;2022-10-26T15:25:28;15.73;;;7.70;;
42066;SDS011;27734;47.028;28.820;2022-10-26T15:28:08;16.00;;;7.70;;
42066;SDS011;27734;47.028;28.820;2022-10-26T15:30:58;15.50;;;7.33;;
42066;SDS011;27734;47.028;28.820;2022-10-26T15:33:32;16.97;;;7.50;;
42066;SDS011;27734;47.028;28.820;2022-10-26T15:36:11;19.25;;;8.05;;
42066;SDS011;27734;47.028;28.820;2022-10-26T15:38:43;14.80;;;7.83;;
42066;SDS011;27734;47.028;28.820;2022-10-26T15:41:17;16.63;;;7.33;;
42066;SDS011;27734;47.028;28.820;2022-10-26T15:43:51;16.30;;;8.40;;
42066;SDS011;27734;47.028;28.820;2022-10-26T15:46:24;16.77;;;7.77;;
42066;SDS011;27734;47.028;28.820;2022-10-26T15:48:59;17.43;;;8.23;;
42066;SDS011;27734;47.028;28.820;2022-10-26T15:51:32;15.67;;;8.63;;
42066;SDS011;27734;47.028;28.820;2022-10-26T15:54:03;15.70;;;8.00;;
42066;SDS011;27734;47.028;28.820;2022-10-26T15:56:35;17.07;;;8.37;;
42066;SDS011;27734;47.028;28.820;2022-10-26T15:59:09;15.73;;;7.73;;
42066;SDS011;27734;47.028;28.820;2022-10-26T16:01:46;15.97;;;7.43;;
42066;SDS011;27734;47.028;28.820;2022-10-26T16:04:19;17.55;;;8.00;;
42066;SDS011;27734;47.028;28.820;2022-10-26T16:06:50;18.53;;;8.53;;
42066;SDS011;27734;47.028;28.820;2022-10-26T16:09:25;14.47;;;8.00;;
42066;SDS011;27734;47.028;28.820;2022-10-26T16:11:57;14.97;;;7.63;;
42066;SDS011;27734;47.028;28.820;2022-10-26T16:14:28;20.87;;;8.10;;
42066;SDS011;27734;47.028;28.820;2022-10-26T16:16:59;15.57;;;8.10;;
42066;SDS011;27734;47.028;28.820;2022-10-26T16:19:30;18.60;;;8.50;;
42066;SDS011;27734;47.028;28.820;2022-10-26T16:22:01;17.93;;;9.70;;
42066;SDS011;27734;47.028;28.820;2022-10-26T16:24:32;18.13;;;8.80;;
42066;SDS011;27734;47.028;28.820;2022-10-26T16:27:03;16.97;;;9.20;;
42066;SDS011;27734;47.028;28.820;2022-10-26T16:29:35;20.03;;;8.70;;
42066;SDS011;27734;47.028;28.820;2022-10-26T16:32:06;20.27;;;10.37;;
42066;SDS011;27734;47.028;28.820;2022-10-26T16:34:37;25.93;;;11.60;;
42066;SDS011;27734;47.028;28.820;2022-10-26T16:37:08;21.43;;;11.30;;
42066;SDS011;27734;47.028;28.820;2022-10-26T16:39:39;24.10;;;11.67;;
42066;SDS011;27734;47.028;28.820;2022-10-26T16:42:10;20.67;;;10.87;;
42066;SDS011;27734;47.028;28.820;2022-10-26T16:44:41;20.43;;;11.00;;
42066;SDS011;27734;47.028;28.820;2022-10-26T16:47:12;21.53;;;11.00;;
42066;SDS011;27734;47.028;28.820;2022-10-26T16:49:43;25.70;;;11.53;;
42066;SDS011;27734;47.028;28.820;2022-10-26T16:52:14;21.93;;;11.20;;
42066;SDS011;27734;47.028;28.820;2022-10-26T16:54:46;23.30;;;12.23;;
42066;SDS011;27734;47.028;28.820;2022-10-26T16:57:17;21.93;;;12.00;;